Time;durP1;ratioP1;P1;durP2;ratioP2;P2;SDS_P1;SDS_P2;PMS_P1;PMS_P2;Temp;Humidity;BMP_temperature;BMP_pressure;BME280_temperature;BME280_humidity;BME280_pressure;Samples;Min_cycle;Max_cycle;Signal;HPM_P1;HPM_P2
2022/03/10 00:00:21;;;;;;;128.13;54.88;;;;;;;;;;5043001;28;20262;-95
2022/03/10 00:02:48;;;;;;;126.57;54.92;;;;;;;;;;5042933;28;20231;-95
2022/03/10 00:05:15;;;;;;;118.43;54.10;;;;;;;;;;5042433;28;20251;-94
2022/03/10 00:07:43;;;;;;;128.00;57.25;;;;;;;;;;5042334;28;20201;-95
2022/03/10 00:10:10;;;;;;;120.65;55.33;;;;;;;;;;5041324;28;20258;-95
2022/03/10 00:12:36;;;;;;;118.53;54.08;;;;;;;;;;5041807;28;20201;-94
2022/03/10 00:15:03;;;;;;;115.65;52.40;;;;;;;;;;5041974;28;20197;-91
2022/03/10 00:17:30;;;;;;;114.38;52.08;;;;;;;;;;5042186;28;20228;-91
2022/03/10 00:19:57;;;;;;;124.32;55.15;;;;;;;;;;5040780;28;20210;-91
2022/03/10 00:22:23;;;;;;;128.85;53.92;;;;;;;;;;5041717;28;20259;-93
2022/03/10 00:24:51;;;;;;;123.05;57.33;;;;;;;;;;5042676;28;20541;-91
2022/03/10 00:27:17;;;;;;;111.90;51.47;;;;;;;;;;5042956;28;20223;-94
2022/03/10 00:29:44;;;;;;;116.40;54.13;;;;;;;;;;5041927;28;20228;-92
2022/03/10 00:32:10;;;;;;;116.35;54.40;;;;;;;;;;5042555;28;20759;-91
2022/03/10 00:34:37;;;;;;;114.65;54.53;;;;;;;;;;5040551;28;20246;-94
2022/03/10 00:37:04;;;;;;;123.90;54.53;;;;;;;;;;5039551;28;20197;-94
2022/03/10 00:39:30;;;;;;;124.45;53.55;;;;;;;;;;5041690;28;20197;-94
2022/03/10 00:41:58;;;;;;;117.35;55.80;;;;;;;;;;5042576;28;20247;-93
2022/03/10 00:44:25;;;;;;;117.63;51.47;;;;;;;;;;5042503;28;20258;-93
2022/03/10 00:46:51;;;;;;;114.93;53.25;;;;;;;;;;5042815;28;20200;-93
2022/03/10 00:49:18;;;;;;;121.25;53.72;;;;;;;;;;5042077;28;20185;-94
2022/03/10 00:51:45;;;;;;;114.28;52.65;;;;;;;;;;5041295;28;20239;-95
2022/03/10 00:54:11;;;;;;;114.68;53.20;;;;;;;;;;5041533;28;20231;-95
2022/03/10 00:56:38;;;;;;;115.40;52.47;;;;;;;;;;5041952;28;20197;-94
2022/03/10 00:59:06;;;;;;;117.63;53.42;;;;;;;;;;5042331;28;20231;-94
2022/03/10 01:01:32;;;;;;;118.25;52.85;;;;;;;;;;5042537;28;20200;-94
2022/03/10 01:03:59;;;;;;;118.90;53.05;;;;;;;;;;5042334;28;20232;-95
2022/03/10 01:06:25;;;;;;;115.38;53.15;;;;;;;;;;5042009;28;20258;-95
2022/03/10 01:08:52;;;;;;;120.88;54.50;;;;;;;;;;5042218;28;20201;-95
2022/03/10 01:11:18;;;;;;;115.32;54.03;;;;;;;;;;5041820;28;20220;-95
2022/03/10 01:13:44;;;;;;;118.97;54.00;;;;;;;;;;5039362;28;20472;-94
2022/03/10 01:16:12;;;;;;;118.75;53.55;;;;;;;;;;5038659;28;20250;-94
2022/03/10 01:18:39;;;;;;;116.60;52.72;;;;;;;;;;5041902;28;20737;-94
2022/03/10 01:21:05;;;;;;;117.65;53.08;;;;;;;;;;5041515;28;20200;-95
2022/03/10 01:23:32;;;;;;;115.15;53.85;;;;;;;;;;5041016;28;20228;-94
2022/03/10 01:25:58;;;;;;;118.40;52.92;;;;;;;;;;5036941;28;20197;-93
2022/03/10 01:28:25;;;;;;;115.03;53.10;;;;;;;;;;5040394;28;20197;-94
2022/03/10 01:30:51;;;;;;;126.80;53.15;;;;;;;;;;5043439;28;20201;-95
2022/03/10 01:33:19;;;;;;;117.50;54.03;;;;;;;;;;5045725;28;20208;-94
2022/03/10 01:35:46;;;;;;;119.30;54.95;;;;;;;;;;5045386;28;20196;-94
2022/03/10 01:38:12;;;;;;;116.00;51.85;;;;;;;;;;5045175;28;20200;-94
2022/03/10 01:40:38;;;;;;;114.75;53.53;;;;;;;;;;5040054;28;20190;-94
2022/03/10 01:43:05;;;;;;;115.07;53.28;;;;;;;;;;5025192;28;20256;-93
2022/03/10 01:45:32;;;;;;;115.95;53.45;;;;;;;;;;5035438;28;20197;-92
2022/03/10 01:47:58;;;;;;;118.00;54.30;;;;;;;;;;5045160;28;20704;-92
2022/03/10 01:50:26;;;;;;;119.75;54.00;;;;;;;;;;5043170;28;20723;-93
2022/03/10 01:52:52;;;;;;;121.57;54.45;;;;;;;;;;5042056;28;20251;-94
2022/03/10 01:55:19;;;;;;;116.45;52.17;;;;;;;;;;5044609;28;20664;-93
2022/03/10 01:57:46;;;;;;;111.80;51.45;;;;;;;;;;5045236;28;20201;-96
2022/03/10 02:00:14;;;;;;;120.60;55.53;;;;;;;;;;5044842;28;20223;-94
2022/03/10 02:02:40;;;;;;;127.15;54.72;;;;;;;;;;5045135;28;21376;-94
2022/03/10 02:05:07;;;;;;;118.40;54.00;;;;;;;;;;5044808;28;20654;-94
2022/03/10 02:10:19;;;;;;;119.28;54.97;;;;;;;;;;5043681;28;20200;-96
2022/03/10 02:12:46;;;;;;;119.80;55.33;;;;;;;;;;5043746;28;20226;-95
2022/03/10 02:18:00;;;;;;;121.30;53.33;;;;;;;;;;5044326;28;20219;-95
2022/03/10 02:20:27;;;;;;;124.35;54.90;;;;;;;;;;5044366;28;20197;-95
2022/03/10 02:22:56;;;;;;;125.68;55.50;;;;;;;;;;5044684;28;20642;-96
2022/03/10 02:25:23;;;;;;;118.15;54.63;;;;;;;;;;5044215;28;20185;-95
2022/03/10 02:27:50;;;;;;;122.07;55.22;;;;;;;;;;5044344;28;20200;-96
2022/03/10 02:30:17;;;;;;;121.82;54.28;;;;;;;;;;5043696;28;20220;-94
2022/03/10 02:32:43;;;;;;;126.72;56.58;;;;;;;;;;5044475;28;20205;-96
2022/03/10 02:35:10;;;;;;;134.45;56.83;;;;;;;;;;5045950;28;20196;-95
2022/03/10 02:37:40;;;;;;;119.13;55.17;;;;;;;;;;5046330;28;20221;-96
2022/03/10 02:40:09;;;;;;;120.32;53.40;;;;;;;;;;5057880;28;20205;-96
2022/03/10 02:42:35;;;;;;;115.15;51.38;;;;;;;;;;5055727;28;20223;-96
2022/03/10 02:45:03;;;;;;;127.13;55.03;;;;;;;;;;5055440;28;20231;-96
2022/03/10 02:47:49;;;;;;;123.32;55.25;;;;;;;;;;5055820;28;20224;-96
2022/03/10 02:50:16;;;;;;;118.80;52.92;;;;;;;;;;5055509;28;20203;-96
2022/03/10 02:52:43;;;;;;;130.18;56.40;;;;;;;;;;5054826;28;20237;-96
2022/03/10 02:55:19;;;;;;;122.97;55.05;;;;;;;;;;5051019;28;20204;-96
2022/03/10 02:58:06;;;;;;;123.43;55.58;;;;;;;;;;5052008;28;20196;-96
2022/03/10 03:00:33;;;;;;;125.13;54.22;;;;;;;;;;5054057;28;20223;-96
2022/03/10 03:02:59;;;;;;;119.75;54.83;;;;;;;;;;5046198;28;20279;-96
2022/03/10 03:05:26;;;;;;;124.18;55.72;;;;;;;;;;5046699;28;20192;-96
2022/03/10 03:08:00;;;;;;;126.63;55.35;;;;;;;;;;5053759;28;20181;-96
2022/03/10 03:10:28;;;;;;;121.70;55.25;;;;;;;;;;5053487;28;20200;-96
2022/03/10 03:12:55;;;;;;;123.43;56.03;;;;;;;;;;5045716;28;20615;-96
2022/03/10 03:15:39;;;;;;;121.65;54.65;;;;;;;;;;5051582;28;20216;-96
2022/03/10 03:18:07;;;;;;;118.30;52.47;;;;;;;;;;5054522;28;20188;-96
2022/03/10 03:20:37;;;;;;;126.10;56.50;;;;;;;;;;5047911;28;20196;-96
2022/03/10 03:23:04;;;;;;;119.97;53.53;;;;;;;;;;5053859;28;20319;-96
2022/03/10 03:25:32;;;;;;;118.07;53.22;;;;;;;;;;5056486;28;20220;-96
2022/03/10 03:28:00;;;;;;;111.70;51.35;;;;;;;;;;5053307;28;20197;-96
2022/03/10 03:30:39;;;;;;;113.88;52.65;;;;;;;;;;5053236;28;20197;-97
2022/03/10 03:33:28;;;;;;;125.93;55.53;;;;;;;;;;5057469;28;20207;-96
2022/03/10 03:35:55;;;;;;;113.82;50.63;;;;;;;;;;5057563;28;20185;-96
2022/03/10 03:41:17;;;;;;;127.05;55.70;;;;;;;;;;5018061;28;20285;-96
2022/03/10 03:49:23;;;;;;;119.40;53.90;;;;;;;;;;5057705;28;20234;-96
2022/03/10 03:51:50;;;;;;;126.82;54.95;;;;;;;;;;5058511;28;20209;-96
2022/03/10 03:54:17;;;;;;;126.47;54.65;;;;;;;;;;5054751;28;20279;-96
2022/03/10 03:57:08;;;;;;;119.93;54.08;;;;;;;;;;5051262;28;20193;-96
2022/03/10 04:02:10;;;;;;;128.45;56.85;;;;;;;;;;4889585;22;20262;-96
2022/03/10 04:04:36;;;;;;;106.30;48.20;;;;;;;;;;5065118;28;20230;-95
2022/03/10 04:07:03;;;;;;;127.20;54.92;;;;;;;;;;5061644;28;20196;-95
2022/03/10 04:09:31;;;;;;;113.38;51.45;;;;;;;;;;5044961;28;20204;-96
2022/03/10 04:12:02;;;;;;;120.10;52.53;;;;;;;;;;5060615;28;20200;-95
2022/03/10 04:14:29;;;;;;;119.50;52.70;;;;;;;;;;5067734;28;20196;-96
2022/03/10 04:16:56;;;;;;;122.82;55.70;;;;;;;;;;5065269;28;20219;-95
2022/03/10 04:19:22;;;;;;;119.40;53.50;;;;;;;;;;5063590;28;20200;-95
2022/03/10 04:21:49;;;;;;;128.05;58.20;;;;;;;;;;5061455;28;20196;-95
2022/03/10 04:24:15;;;;;;;122.50;54.95;;;;;;;;;;5063090;28;20220;-94
2022/03/10 04:26:42;;;;;;;122.50;54.85;;;;;;;;;;5065400;28;20204;-94
2022/03/10 04:29:10;;;;;;;124.72;54.10;;;;;;;;;;5064630;28;20198;-95
2022/03/10 04:31:37;;;;;;;126.75;56.08;;;;;;;;;;5064203;28;20192;-96
2022/03/10 04:34:05;;;;;;;124.30;55.15;;;;;;;;;;5066627;28;20200;-96
2022/03/10 04:36:31;;;;;;;122.32;54.67;;;;;;;;;;5066601;28;20230;-94
2022/03/10 04:38:58;;;;;;;123.80;54.88;;;;;;;;;;5042393;28;20205;-95
2022/03/10 04:41:24;;;;;;;126.53;55.38;;;;;;;;;;5052916;28;20200;-95
2022/03/10 04:43:51;;;;;;;119.78;55.17;;;;;;;;;;5065769;28;20242;-95
2022/03/10 04:46:19;;;;;;;122.28;54.75;;;;;;;;;;5059498;28;20204;-93
2022/03/10 04:48:45;;;;;;;123.55;55.65;;;;;;;;;;5043606;28;20204;-94
2022/03/10 04:51:12;;;;;;;115.70;52.70;;;;;;;;;;5042406;28;20215;-94
2022/03/10 04:53:39;;;;;;;119.97;54.28;;;;;;;;;;5059606;28;20425;-94
2022/03/10 04:56:05;;;;;;;125.00;54.70;;;;;;;;;;5062147;28;20242;-91
2022/03/10 04:58:32;;;;;;;117.97;53.08;;;;;;;;;;5062498;28;20299;-93
2022/03/10 05:00:58;;;;;;;117.25;53.38;;;;;;;;;;5062571;28;20216;-93
2022/03/10 05:03:26;;;;;;;125.38;54.25;;;;;;;;;;5062572;28;20235;-94
2022/03/10 05:05:52;;;;;;;125.82;57.65;;;;;;;;;;5063998;28;20234;-92
2022/03/10 05:08:19;;;;;;;120.95;54.40;;;;;;;;;;5066011;28;20204;-95
2022/03/10 05:10:45;;;;;;;123.30;55.03;;;;;;;;;;5063687;28;20609;-95
2022/03/10 05:13:12;;;;;;;122.93;54.47;;;;;;;;;;5064093;28;20263;-96
2022/03/10 05:15:39;;;;;;;116.22;51.95;;;;;;;;;;5068211;28;20234;-96
2022/03/10 05:18:06;;;;;;;120.32;53.55;;;;;;;;;;5066373;28;20620;-95
2022/03/10 05:20:34;;;;;;;119.18;53.40;;;;;;;;;;5066456;28;20196;-96
2022/03/10 05:23:01;;;;;;;116.28;53.20;;;;;;;;;;5065763;28;20204;-95
2022/03/10 05:25:32;;;;;;;119.35;54.33;;;;;;;;;;5066124;28;20208;-95
2022/03/10 05:28:22;;;;;;;119.03;55.67;;;;;;;;;;5071951;28;20203;-96
2022/03/10 05:30:48;;;;;;;118.63;52.17;;;;;;;;;;5076154;28;20200;-96
2022/03/10 05:33:21;;;;;;;115.20;52.45;;;;;;;;;;5056126;28;20220;-96
2022/03/10 05:35:53;;;;;;;112.03;51.67;;;;;;;;;;5046581;28;20201;-96
2022/03/10 05:38:20;;;;;;;115.55;52.10;;;;;;;;;;5064684;28;20712;-96
2022/03/10 05:43:28;;;;;;;123.53;54.90;;;;;;;;;;5046086;28;20228;-96
2022/03/10 05:45:54;;;;;;;118.05;54.25;;;;;;;;;;5048102;28;20269;-96
2022/03/10 05:48:21;;;;;;;119.65;54.05;;;;;;;;;;5072369;28;20226;-96
2022/03/10 05:50:49;;;;;;;120.93;53.35;;;;;;;;;;5071578;28;20204;-96
2022/03/10 05:53:30;;;;;;;123.78;55.45;;;;;;;;;;5069259;28;20200;-96
2022/03/10 05:55:56;;;;;;;121.00;52.83;;;;;;;;;;5068876;28;20207;-96
2022/03/10 05:58:37;;;;;;;118.57;52.67;;;;;;;;;;5068321;28;20195;-96
2022/03/10 06:01:03;;;;;;;113.50;52.40;;;;;;;;;;5067945;28;20195;-95
2022/03/10 06:03:30;;;;;;;113.28;50.10;;;;;;;;;;5060871;28;20295;-94
2022/03/10 06:05:58;;;;;;;116.35;50.72;;;;;;;;;;5048997;28;20205;-96
2022/03/10 06:08:25;;;;;;;115.65;51.85;;;;;;;;;;5060576;28;20230;-93
2022/03/10 06:10:51;;;;;;;114.47;51.95;;;;;;;;;;5066521;28;20197;-92
2022/03/10 06:13:19;;;;;;;110.35;49.97;;;;;;;;;;5047501;28;20188;-96
2022/03/10 06:15:46;;;;;;;118.60;53.30;;;;;;;;;;5044362;28;20231;-96
2022/03/10 06:18:12;;;;;;;110.78;51.35;;;;;;;;;;5046088;28;20196;-90
2022/03/10 06:20:40;;;;;;;119.50;50.60;;;;;;;;;;5061450;28;20202;-95
2022/03/10 06:23:09;;;;;;;114.13;50.47;;;;;;;;;;5061637;28;20200;-96
2022/03/10 06:25:36;;;;;;;113.72;51.30;;;;;;;;;;5058642;28;20258;-94
2022/03/10 06:28:04;;;;;;;112.88;52.50;;;;;;;;;;5053969;28;20215;-93
2022/03/10 06:30:30;;;;;;;115.80;52.92;;;;;;;;;;5053593;28;20707;-92
2022/03/10 06:32:57;;;;;;;111.50;50.67;;;;;;;;;;5054736;28;20201;-94
2022/03/10 06:35:24;;;;;;;112.88;50.95;;;;;;;;;;5057028;28;20196;-94
2022/03/10 06:37:50;;;;;;;112.40;49.22;;;;;;;;;;5054930;28;20197;-93
2022/03/10 06:40:19;;;;;;;116.25;52.00;;;;;;;;;;5056245;28;20188;-95
2022/03/10 06:42:45;;;;;;;113.22;50.78;;;;;;;;;;5048245;28;20564;-92
2022/03/10 06:45:12;;;;;;;121.28;52.00;;;;;;;;;;5043524;28;20294;-94
2022/03/10 06:47:40;;;;;;;116.85;49.80;;;;;;;;;;5054079;28;20204;-93
2022/03/10 06:50:07;;;;;;;112.50;49.80;;;;;;;;;;5064363;28;20207;-96
2022/03/10 06:52:33;;;;;;;121.05;51.33;;;;;;;;;;5063561;28;20203;-92
2022/03/10 06:55:00;;;;;;;117.20;51.65;;;;;;;;;;5063411;28;20196;-95
2022/03/10 06:57:28;;;;;;;116.72;51.33;;;;;;;;;;5061911;28;20250;-93
2022/03/10 06:59:54;;;;;;;117.53;50.97;;;;;;;;;;5063962;28;20212;-94
2022/03/10 07:02:21;;;;;;;120.25;50.85;;;;;;;;;;5064172;28;20224;-94
2022/03/10 07:04:47;;;;;;;115.32;50.28;;;;;;;;;;5064141;28;20240;-93
2022/03/10 07:07:14;;;;;;;118.88;51.78;;;;;;;;;;5063308;28;20196;-96
2022/03/10 07:09:41;;;;;;;122.25;53.33;;;;;;;;;;5063411;28;20281;-94
2022/03/10 07:12:08;;;;;;;119.50;50.97;;;;;;;;;;5063521;28;20192;-91
2022/03/10 07:14:36;;;;;;;122.75;54.30;;;;;;;;;;5063834;28;20200;-92
2022/03/10 07:17:03;;;;;;;117.38;51.90;;;;;;;;;;5061882;28;20206;-93
2022/03/10 07:19:30;;;;;;;120.88;52.80;;;;;;;;;;5062517;28;20196;-93
2022/03/10 07:21:56;;;;;;;117.43;52.70;;;;;;;;;;5062536;28;20208;-96
2022/03/10 07:24:23;;;;;;;122.80;53.65;;;;;;;;;;5061794;28;20227;-96
2022/03/10 07:26:49;;;;;;;117.18;51.25;;;;;;;;;;5060413;28;20204;-95
2022/03/10 07:29:16;;;;;;;119.03;51.13;;;;;;;;;;5055617;28;20188;-95
2022/03/10 07:31:43;;;;;;;122.60;52.70;;;;;;;;;;5052825;28;20205;-95
2022/03/10 07:34:10;;;;;;;119.78;51.03;;;;;;;;;;5051973;28;20192;-95
2022/03/10 07:53:46;;;;;;;130.17;56.73;;;;;;;;;;5045127;27;1291654;-94
2022/03/10 07:56:12;;;;;;;121.47;52.20;;;;;;;;;;5075248;28;20474;-95
2022/03/10 07:58:39;;;;;;;125.38;54.50;;;;;;;;;;5071955;27;20207;-94
2022/03/10 08:01:05;;;;;;;125.65;52.72;;;;;;;;;;5075064;28;20248;-91
2022/03/10 08:03:32;;;;;;;116.57;51.80;;;;;;;;;;5077284;28;20210;-93
2022/03/10 08:05:58;;;;;;;121.75;53.38;;;;;;;;;;5085034;28;20195;-96
2022/03/10 08:08:25;;;;;;;123.93;54.13;;;;;;;;;;5077494;27;20221;-94
2022/03/10 08:10:52;;;;;;;124.25;54.38;;;;;;;;;;5074396;28;20221;-96
2022/03/10 08:13:24;;;;;;;126.50;55.95;;;;;;;;;;5065963;28;20208;-91
2022/03/10 08:15:51;;;;;;;125.10;54.05;;;;;;;;;;5052419;28;20197;-92
2022/03/10 08:18:17;;;;;;;120.53;52.75;;;;;;;;;;5058293;28;20201;-94
2022/03/10 08:20:44;;;;;;;121.05;52.97;;;;;;;;;;5077498;28;20196;-95
2022/03/10 08:23:11;;;;;;;121.38;52.15;;;;;;;;;;5077412;28;20237;-94
2022/03/10 08:25:37;;;;;;;124.18;53.05;;;;;;;;;;5074066;28;20267;-92
2022/03/10 08:28:05;;;;;;;124.78;55.35;;;;;;;;;;5090856;27;20235;-95
2022/03/10 08:30:32;;;;;;;120.97;52.85;;;;;;;;;;5062022;27;20196;-92
2022/03/10 08:32:58;;;;;;;121.85;52.50;;;;;;;;;;5058598;28;20240;-91
2022/03/10 08:35:25;;;;;;;123.10;53.67;;;;;;;;;;5058629;28;20200;-93
2022/03/10 08:37:52;;;;;;;122.75;53.60;;;;;;;;;;5056840;28;20196;-95
2022/03/10 08:40:19;;;;;;;124.93;53.85;;;;;;;;;;5073901;28;20200;-94
2022/03/10 08:42:46;;;;;;;123.72;54.13;;;;;;;;;;5080782;27;20262;-96
2022/03/10 08:45:15;;;;;;;127.82;56.05;;;;;;;;;;5080707;27;20682;-96
2022/03/10 08:47:42;;;;;;;125.78;54.83;;;;;;;;;;5055392;28;20781;-95
2022/03/10 08:50:09;;;;;;;123.22;53.05;;;;;;;;;;5055432;28;20259;-95
2022/03/10 08:52:36;;;;;;;123.55;54.60;;;;;;;;;;5053299;28;20234;-95
2022/03/10 08:55:05;;;;;;;125.07;54.25;;;;;;;;;;5041923;28;20219;-95
2022/03/10 08:57:32;;;;;;;128.15;54.70;;;;;;;;;;5042746;28;20204;-95
2022/03/10 08:59:59;;;;;;;124.30;53.80;;;;;;;;;;5055334;27;20212;-94
2022/03/10 09:02:27;;;;;;;122.80;52.47;;;;;;;;;;5062080;28;20239;-94
2022/03/10 09:04:53;;;;;;;127.10;53.67;;;;;;;;;;5062964;28;20531;-95
2022/03/10 09:07:19;;;;;;;125.05;53.20;;;;;;;;;;5062902;28;20200;-93
2022/03/10 09:09:46;;;;;;;123.93;53.05;;;;;;;;;;5061321;28;20221;-94
2022/03/10 09:12:13;;;;;;;127.47;54.35;;;;;;;;;;5063716;28;20200;-95
2022/03/10 09:14:39;;;;;;;125.65;54.05;;;;;;;;;;5086276;27;20269;-94
2022/03/10 09:17:06;;;;;;;127.15;53.28;;;;;;;;;;5042530;28;20229;-93
2022/03/10 09:19:34;;;;;;;129.23;54.85;;;;;;;;;;5049049;28;20197;-94
2022/03/10 09:22:01;;;;;;;127.22;54.30;;;;;;;;;;5062743;28;20896;-96
2022/03/10 09:24:30;;;;;;;127.72;54.38;;;;;;;;;;5061643;28;20200;-93
2022/03/10 09:26:56;;;;;;;123.82;52.97;;;;;;;;;;5063825;28;20200;-94
2022/03/10 09:29:23;;;;;;;125.90;52.55;;;;;;;;;;5054943;28;20284;-95
2022/03/10 09:31:50;;;;;;;129.50;54.15;;;;;;;;;;5061231;28;20204;-94
2022/03/10 09:34:17;;;;;;;128.40;54.83;;;;;;;;;;5060864;28;20192;-94
2022/03/10 09:36:45;;;;;;;127.25;52.90;;;;;;;;;;5061543;28;20204;-94
2022/03/10 09:39:11;;;;;;;127.28;53.55;;;;;;;;;;5063220;28;20192;-93
2022/03/10 09:41:38;;;;;;;125.78;53.45;;;;;;;;;;5061584;28;20674;-94
2022/03/10 09:44:10;;;;;;;127.43;54.25;;;;;;;;;;5097954;27;20194;-96
2022/03/10 09:46:36;;;;;;;127.68;54.03;;;;;;;;;;5041105;28;20698;-91
2022/03/10 09:49:03;;;;;;;123.95;51.90;;;;;;;;;;5043890;28;20344;-95
2022/03/10 09:51:29;;;;;;;;;;;;;;;;;;5063611;28;20235;-94
2022/03/10 09:53:57;;;;;;;112.60;52.35;;;;;;;;;;5070521;28;20497;-93
2022/03/10 09:56:23;;;;;;;107.65;52.30;;;;;;;;;;5046974;28;20204;-95
2022/03/10 09:58:50;;;;;;;106.18;50.60;;;;;;;;;;5054081;28;20312;-95
2022/03/10 10:01:17;;;;;;;103.07;49.60;;;;;;;;;;5063086;28;20208;-94
2022/03/10 10:03:44;;;;;;;107.28;50.10;;;;;;;;;;5062914;28;20224;-94
2022/03/10 10:06:11;;;;;;;117.30;50.72;;;;;;;;;;5061585;28;20192;-93
2022/03/10 10:08:38;;;;;;;104.93;50.60;;;;;;;;;;5062830;28;20200;-93
2022/03/10 10:11:07;;;;;;;107.10;51.35;;;;;;;;;;5062166;28;20196;-95
2022/03/10 10:13:34;;;;;;;103.22;49.00;;;;;;;;;;5092493;27;20215;-94
2022/03/10 10:16:01;;;;;;;107.70;50.33;;;;;;;;;;5075588;27;20203;-94
2022/03/10 10:18:29;;;;;;;110.70;49.80;;;;;;;;;;5062072;28;20201;-95
2022/03/10 10:20:55;;;;;;;105.82;50.90;;;;;;;;;;5060209;28;20197;-92
2022/03/10 10:23:23;;;;;;;111.57;54.03;;;;;;;;;;5059584;28;20276;-91
2022/03/10 10:25:54;;;;;;;125.40;54.53;;;;;;;;;;5045522;28;20218;-92
2022/03/10 10:28:27;;;;;;;128.48;57.15;;;;;;;;;;5037736;28;20429;-90
2022/03/10 10:30:54;;;;;;;114.03;51.45;;;;;;;;;;5054919;28;20202;-93
2022/03/10 10:33:21;;;;;;;115.55;53.08;;;;;;;;;;5059510;28;20199;-92
2022/03/10 10:35:48;;;;;;;116.00;53.28;;;;;;;;;;5053914;28;20211;-92
2022/03/10 10:38:28;;;;;;;116.47;53.20;;;;;;;;;;5059009;28;20196;-90
2022/03/10 10:41:14;;;;;;;115.18;52.85;;;;;;;;;;5044504;28;20231;-92
2022/03/10 10:43:43;;;;;;;114.95;53.33;;;;;;;;;;5039534;28;20228;-92
2022/03/10 10:46:21;;;;;;;113.30;51.78;;;;;;;;;;5056815;28;20225;-93
2022/03/10 10:48:47;;;;;;;122.53;53.08;;;;;;;;;;5060280;28;20295;-96
2022/03/10 10:51:14;;;;;;;118.90;53.50;;;;;;;;;;5059272;28;20304;-96
2022/03/10 10:53:41;;;;;;;116.28;52.58;;;;;;;;;;5060103;28;20232;-94
2022/03/10 10:56:07;;;;;;;117.25;52.50;;;;;;;;;;5044315;28;20208;-94
2022/03/10 10:58:34;;;;;;;115.57;52.95;;;;;;;;;;5037970;28;20234;-93
2022/03/10 11:01:01;;;;;;;116.95;52.63;;;;;;;;;;5048971;28;20195;-92
2022/03/10 11:03:31;;;;;;;126.10;54.47;;;;;;;;;;5044225;28;20284;-89
2022/03/10 11:05:58;;;;;;;126.30;53.70;;;;;;;;;;5052585;28;20200;-91
2022/03/10 11:08:25;;;;;;;123.90;52.70;;;;;;;;;;5040190;28;20196;-88
2022/03/10 11:10:52;;;;;;;127.03;54.60;;;;;;;;;;5051962;28;20660;-91
2022/03/10 11:13:18;;;;;;;122.18;52.10;;;;;;;;;;5060375;28;20229;-94
2022/03/10 11:15:46;;;;;;;130.40;53.60;;;;;;;;;;5059775;28;20191;-91
2022/03/10 11:18:14;;;;;;;136.68;55.55;;;;;;;;;;5057970;28;20637;-91
2022/03/10 11:20:41;;;;;;;136.80;55.42;;;;;;;;;;5042650;28;20364;-93
2022/03/10 11:23:13;;;;;;;136.48;55.50;;;;;;;;;;5037504;28;20526;-92
2022/03/10 11:25:44;;;;;;;136.70;55.83;;;;;;;;;;5037892;28;20207;-91
2022/03/10 11:28:11;;;;;;;133.77;53.80;;;;;;;;;;5044209;28;20203;-90
2022/03/10 11:30:38;;;;;;;142.65;55.58;;;;;;;;;;5047963;28;20229;-90
2022/03/10 11:33:06;;;;;;;131.38;53.15;;;;;;;;;;5040220;28;20264;-94
2022/03/10 11:35:38;;;;;;;135.35;54.70;;;;;;;;;;5059721;28;20762;-94
2022/03/10 11:38:04;;;;;;;134.85;55.08;;;;;;;;;;5059942;28;20245;-94
2022/03/10 11:40:44;;;;;;;135.43;54.90;;;;;;;;;;5052452;28;20205;-91
2022/03/10 11:43:11;;;;;;;137.63;55.88;;;;;;;;;;5037227;28;20228;-91
2022/03/10 11:45:41;;;;;;;136.90;54.95;;;;;;;;;;5048947;28;20200;-96
2022/03/10 11:48:26;;;;;;;117.45;52.88;;;;;;;;;;5051158;28;20193;-91
2022/03/10 11:50:55;;;;;;;126.43;55.60;;;;;;;;;;5044021;28;20503;-93
2022/03/10 11:53:22;;;;;;;125.00;54.60;;;;;;;;;;5049452;28;20223;-94
2022/03/10 11:55:51;;;;;;;120.07;52.10;;;;;;;;;;5051609;28;20197;-93
2022/03/10 11:58:18;;;;;;;122.97;53.85;;;;;;;;;;5044989;28;20200;-94
2022/03/10 12:00:50;;;;;;;120.93;52.05;;;;;;;;;;5059614;28;20192;-91
2022/03/10 12:03:20;;;;;;;138.63;55.25;;;;;;;;;;5059453;28;20223;-93
2022/03/10 12:05:51;;;;;;;135.40;54.50;;;;;;;;;;5049717;28;20260;-91
2022/03/10 12:08:19;;;;;;;136.77;54.55;;;;;;;;;;5039069;28;20260;-92
2022/03/10 12:10:47;;;;;;;134.73;54.15;;;;;;;;;;5044909;28;20229;-90
2022/03/10 12:13:30;;;;;;;137.45;54.97;;;;;;;;;;5037917;28;20197;-93
2022/03/10 12:15:58;;;;;;;116.22;51.70;;;;;;;;;;5048471;28;20997;-90
2022/03/10 12:18:42;;;;;;;118.93;52.53;;;;;;;;;;5058867;28;20268;-91
2022/03/10 12:21:19;;;;;;;118.57;52.80;;;;;;;;;;5047224;28;20197;-93
2022/03/10 12:23:54;;;;;;;116.63;51.45;;;;;;;;;;5038073;28;20224;-93
2022/03/10 12:26:28;;;;;;;125.05;54.75;;;;;;;;;;5038750;28;20196;-93
2022/03/10 12:28:55;;;;;;;121.03;53.17;;;;;;;;;;5052953;28;20222;-94
2022/03/10 12:31:23;;;;;;;119.57;53.42;;;;;;;;;;5062783;28;20196;-89
2022/03/10 12:33:51;;;;;;;128.25;54.45;;;;;;;;;;5062568;28;20200;-92
2022/03/10 12:36:28;;;;;;;126.32;53.67;;;;;;;;;;5050493;28;20228;-91
2022/03/10 12:38:57;;;;;;;127.05;54.75;;;;;;;;;;5042058;28;20205;-92
2022/03/10 12:41:27;;;;;;;125.18;54.75;;;;;;;;;;5042058;28;20199;-92
2022/03/10 12:43:55;;;;;;;122.85;53.10;;;;;;;;;;5050205;28;20691;-93
2022/03/10 12:46:21;;;;;;;126.45;55.42;;;;;;;;;;5050422;28;20201;-93
2022/03/10 12:48:52;;;;;;;120.60;52.10;;;;;;;;;;5042422;28;20250;-95
2022/03/10 12:51:22;;;;;;;121.93;52.50;;;;;;;;;;5042484;28;20850;-93
2022/03/10 12:53:49;;;;;;;124.85;53.22;;;;;;;;;;5043118;28;20275;-91
2022/03/10 12:59:26;;;;;;;125.53;53.72;;;;;;;;;;5048309;28;20245;-92
2022/03/10 13:01:53;;;;;;;121.18;51.95;;;;;;;;;;5045156;28;20232;-93
2022/03/10 13:04:20;;;;;;;128.68;53.90;;;;;;;;;;5042539;28;20224;-93
2022/03/10 13:06:47;;;;;;;128.88;55.35;;;;;;;;;;5056085;28;20196;-92
2022/03/10 13:09:21;;;;;;;127.57;54.10;;;;;;;;;;5044374;28;20205;-92
2022/03/10 13:11:47;;;;;;;128.80;54.78;;;;;;;;;;5041391;28;20200;-91
2022/03/10 13:14:14;;;;;;;132.60;55.90;;;;;;;;;;5041207;28;20204;-94
2022/03/10 13:16:43;;;;;;;131.10;54.20;;;;;;;;;;5053845;28;20192;-93
2022/03/10 13:19:09;;;;;;;;;;;;;;;;;;5060589;28;20200;-92
2022/03/10 13:21:35;;;;;;;115.67;54.00;;;;;;;;;;5060028;28;20604;-95
2022/03/10 13:24:03;;;;;;;105.97;50.97;;;;;;;;;;5060061;28;20498;-92
2022/03/10 13:26:34;;;;;;;105.22;50.25;;;;;;;;;;5048520;28;20448;-90
2022/03/10 13:29:01;;;;;;;109.70;51.30;;;;;;;;;;5051363;28;20200;-92
2022/03/10 13:31:29;;;;;;;102.55;49.45;;;;;;;;;;5051424;28;20225;-93
2022/03/10 13:34:00;;;;;;;101.40;49.17;;;;;;;;;;5051977;28;20252;-91
2022/03/10 13:36:27;;;;;;;104.15;51.22;;;;;;;;;;5057771;28;20267;-94
2022/03/10 13:38:53;;;;;;;106.63;52.25;;;;;;;;;;5051310;28;20241;-93
2022/03/10 13:41:20;;;;;;;107.38;52.03;;;;;;;;;;5041543;28;20196;-89
2022/03/10 13:43:46;;;;;;;109.20;54.25;;;;;;;;;;5054882;28;20224;-91
2022/03/10 13:46:16;;;;;;;111.60;53.08;;;;;;;;;;5046177;27;20201;-92
2022/03/10 13:48:48;;;;;;;104.47;50.92;;;;;;;;;;5048390;28;20579;-94
2022/03/10 13:51:17;;;;;;;105.22;50.47;;;;;;;;;;5054003;28;20257;-90
2022/03/10 13:53:53;;;;;;;102.68;49.65;;;;;;;;;;5042042;28;20232;-93
2022/03/10 13:56:28;;;;;;;105.28;50.20;;;;;;;;;;5042311;28;20230;-89
2022/03/10 13:58:54;;;;;;;102.85;48.90;;;;;;;;;;5052345;28;20191;-96
2022/03/10 14:01:25;;;;;;;106.82;52.20;;;;;;;;;;5054218;28;20205;-93
2022/03/10 14:03:53;;;;;;;106.85;50.53;;;;;;;;;;5041231;28;20229;-92
2022/03/10 14:06:21;;;;;;;104.47;50.17;;;;;;;;;;5041291;28;20255;-94
2022/03/10 14:08:47;;;;;;;111.32;53.75;;;;;;;;;;5039421;28;20268;-94
2022/03/10 14:11:14;;;;;;;103.85;51.00;;;;;;;;;;5038708;28;20198;-92
2022/03/10 14:13:42;;;;;;;101.93;48.45;;;;;;;;;;5040832;28;20231;-92
2022/03/10 14:16:09;;;;;;;102.85;49.40;;;;;;;;;;5045878;27;20196;-92
2022/03/10 14:18:36;;;;;;;104.50;49.88;;;;;;;;;;5057682;28;20567;-90
2022/03/10 14:21:04;;;;;;;109.85;52.65;;;;;;;;;;5050250;28;20213;-91
2022/03/10 14:23:32;;;;;;;106.05;50.72;;;;;;;;;;5051566;28;20970;-87
2022/03/10 14:25:59;;;;;;;106.70;50.95;;;;;;;;;;5048120;28;20282;-90
2022/03/10 14:28:27;;;;;;;105.72;51.20;;;;;;;;;;5043594;28;20284;-89
2022/03/10 14:30:53;;;;;;;103.53;49.17;;;;;;;;;;5043115;28;20212;-91
2022/03/10 14:33:20;;;;;;;103.97;50.95;;;;;;;;;;5049624;28;20200;-90
2022/03/10 14:35:47;;;;;;;108.70;51.30;;;;;;;;;;5054809;28;20231;-90
2022/03/10 14:38:14;;;;;;;105.20;50.88;;;;;;;;;;5050274;28;20253;-91
2022/03/10 14:40:43;;;;;;;105.63;48.80;;;;;;;;;;5057157;28;20202;-90
2022/03/10 14:43:09;;;;;;;106.55;51.60;;;;;;;;;;5045616;28;20273;-92
2022/03/10 14:45:37;;;;;;;102.20;48.92;;;;;;;;;;5046561;28;20204;-92
2022/03/10 14:48:04;;;;;;;101.90;49.17;;;;;;;;;;5058749;28;20192;-92
2022/03/10 14:50:30;;;;;;;101.88;49.08;;;;;;;;;;5042821;28;20200;-95